Burlington, Wisconsin
Current Conditions -  °F | °C
As of 10:55 AM on Friday 28 Nov 2014 (Local Time) from KBUU Reporting Station
Clear Clear  
Wind Chill: 10°   Ceiling: Unl
Heat Index: 22°   Visibility: 10mi
Dew Point: 14°   Wind: 13mph
Humidity: 71%   Direction: 150°SSE
Pressure: 30.13"   Gusts: NA
Location:  42.68°N, 88.28°W
Report Text: KBUU 281655Z AUTO 15011KT 10SM CLR M06/M10 A3013 RMK AO2 T10571102
Loading
Personal Weather Stations






























Interactive Weather Map New forecast layout! Learn more

10-Day Weather Forecast

Advertisements
Track Severe Weather on mobile